Bradford Regional Airport

Airport
ICAO code: 
KBFD
Summary
ICAO Region: 
NAM
Territory: 
Location: 
Bradford, Pennsylvania,
Coordinates: 
Aerial View: 
41° 47' 57.965" N, 78° 38' 22.797" W
Airport GND: 
Aircraft Ground De/Anti Icing
Airport RE: 
Landing on Contaminated Runways
Airport WX: 
Cumulonimbus
Metar
Observation
KBFD 021034Z AUTO 22010G17KT 2 1/2SM BR OVC002 06/03 A2969 RMK AO2 T00560033
Station
Bradford, Bradford Regional Airport
Date/Time
2021-12-02 10:34:00
Wind direction
220°
Wind speed
10 kts
Lowest cloud amount
overcast
Temperature
5.6°C
Dew point
3.3°C
Humidity
85%
Weather condition
mist

Description

Bradford Regional Airport is a public use airport located in Lewis Run, 19 km south of the central business district of Bradford, a city in McKean County, Pennsylvania.

Climatology

Humid Continental climate (Köppen climate classification Dfb) - Variable weather patterns and a large seasonal temperature variance. Summers are often warm and humid with frequent thunderstorms and winters can be very cold with frequent snowfall and persistent snow cover.

Runways

Designator Length Width Surface Rops
5/23 1372 30 ASP Yes/Yes
14/32 1923 46 ASP Yes/Yes
Airport map: 
Aerial View: 

SKYbrary Partners:

Safety knowledge contributed by: